City Of Cleveland — WDC2358 — position and weather

sailwx.info

Track history (hours):
 
Tides and Currents Weather Stations Pressure Air Temp Water Temp Dewpoint Dewpoint Depression Visibility Wind Speed Wind Dir Waves Ship Positions

City Of Cleveland

Owner: JANTRAN, INC., ROSEDALE, MS. More information available from US FCC via Universal Licensing System and Coast Guard Vessel Documentation Center.

Last reported at 2016-Aug-24 12:04 UTC. Time now 2016-Aug-25 18:32 UTC.
Position N 31°59' W 091°06'.

Length 42 m; draft 12.5 m.

Type: Towing. MMSI: 366991810.

Date/timePositionNaut miles runAvg speedWind from/ knotsBaromVisibWave heightAir tempDewpointWater temp
2016-Aug-24 12:04N 31°59' W 091°06'6 7.4
2016-Aug-24 11:16N 32°05' W 091°05'3 4.2
2016-Aug-24 10:33N 32°07' W 091°02'8 7.8
2016-Aug-24 09:33N 32°14' W 090°59'7 6.7
2016-Aug-24 08:33N 32°21' W 090°56'6 6.5
2016-Aug-24 07:33N 32°26' W 091°01'7 7.1
2016-Aug-24 06:33N 32°31' W 091°06'13 6.6
2016-Aug-24 04:33N 32°44' W 091°05'7 6.5
2016-Aug-24 03:32N 32°50' W 091°09'  
Track history (hours):
 
Tides and Currents Weather Stations Pressure Air Temp Water Temp Dewpoint Dewpoint Depression Visibility Wind Speed Wind Dir Waves Ship Positions

City Of Cleveland

Owner: JANTRAN, INC., ROSEDALE, MS. More information available from US FCC via Universal Licensing System and Coast Guard Vessel Documentation Center.

Last reported at 2016-Aug-24 12:04 UTC. Time now 2016-Aug-25 18:32 UTC.
Position N 31°59' W 091°06'.

Length 42 m; draft 12.5 m.

Type: Towing. MMSI: 366991810.

Date/timePositionNaut miles runAvg speedWind from/ knotsBaromVisibWave heightAir tempDewpointWater temp
2016-Aug-24 12:04N 31°59' W 091°06'6 7.4
2016-Aug-24 11:16N 32°05' W 091°05'3 4.2
2016-Aug-24 10:33N 32°07' W 091°02'8 7.8
2016-Aug-24 09:33N 32°14' W 090°59'7 6.7
2016-Aug-24 08:33N 32°21' W 090°56'6 6.5
2016-Aug-24 07:33N 32°26' W 091°01'7 7.1
2016-Aug-24 06:33N 32°31' W 091°06'13 6.6
2016-Aug-24 04:33N 32°44' W 091°05'7 6.5
2016-Aug-24 03:32N 32°50' W 091°09'  

Dump ship's entire track history